Arlington, Iowa
Current Conditions -  °F | °C
As of 12:35 PM on Thursday 23 Oct 2014 (Local Time) from KOLZ Reporting Station
Haze Haze  
Wind Chill: 46°   Ceiling: 400
Heat Index: 48°   Visibility: 2mi
Dew Point: 48°   Wind: 6mph
Humidity: 100%   Direction: 180°S
Pressure: 30.05"   Gusts: NA
Location:  42.75°N, 91.67°W
Report Text: KOLZ 231735Z AUTO 18005KT 2SM BR OVC004 09/09 A3005 RMK AO2
Loading
Personal Weather Stations






























Interactive Weather Map
Tropical Storm Tracking
New forecast layout! Learn more

10-Day Weather Forecast

Advertisements
Track Severe Weather on mobile